createdAt,value
2023-05-05T00:01:03.078Z,98839.92
2023-05-05T00:03:31.097Z,98844.54
2023-05-05T00:05:59.023Z,98841.72
2023-05-05T00:08:27.917Z,98838.83
2023-05-05T00:10:56.588Z,98836.80
2023-05-05T00:13:25.151Z,98834.05
2023-05-05T00:15:53.868Z,98828.48
2023-05-05T00:18:21.917Z,98826.42
2023-05-05T00:20:50.036Z,98818.50
2023-05-05T00:23:37.938Z,98820.55
2023-05-05T00:26:06.521Z,98822.05
2023-05-05T00:28:35.092Z,98816.15
2023-05-05T00:31:03.055Z,98813.82
2023-05-05T00:33:31.225Z,98813.87
2023-05-05T00:35:59.141Z,98813.24
2023-05-05T00:38:27.480Z,98810.16
2023-05-05T00:40:55.321Z,98808.09
2023-05-05T00:43:23.432Z,98802.88
2023-05-05T00:46:02.041Z,98801.96
2023-05-05T00:48:30.741Z,98802.45
2023-05-05T00:50:58.894Z,98802.41
2023-05-05T00:53:27.524Z,98803.23
2023-05-05T00:55:55.371Z,98806.16
2023-05-05T00:58:23.418Z,98807.77
2023-05-05T01:00:51.532Z,98807.25
2023-05-05T01:03:19.742Z,98811.58
2023-05-05T01:06:01.002Z,98811.54
2023-05-05T01:08:50.732Z,98810.94
2023-05-05T01:11:29.991Z,98805.27
2023-05-05T01:14:17.786Z,98803.60
2023-05-05T01:16:50.624Z,98802.08
2023-05-05T01:19:43.566Z,98799.23
2023-05-05T01:22:15.127Z,98793.98
2023-05-05T01:25:15.571Z,98791.93
2023-05-05T01:28:02.140Z,98792.29
2023-05-05T01:30:48.773Z,98791.21
2023-05-05T01:33:24.612Z,98790.88
2023-05-05T01:36:02.871Z,98790.72
2023-05-05T01:38:40.652Z,98790.95
2023-05-05T01:41:16.613Z,98791.08
2023-05-05T01:43:48.631Z,98788.99
2023-05-05T01:46:19.413Z,98786.87
2023-05-05T01:48:49.061Z,98787.34
2023-05-05T01:51:19.388Z,98788.02
2023-05-05T01:53:48.123Z,98784.88
2023-05-05T01:56:17.175Z,98791.45
2023-05-05T01:58:46.748Z,98794.43
2023-05-05T02:01:16.676Z,98795.08
2023-05-05T02:03:47.465Z,98794.27
2023-05-05T02:06:18.220Z,98799.23
2023-05-05T02:08:47.328Z,98793.52
2023-05-05T02:11:17.548Z,98789.14
2023-05-05T02:13:48.645Z,98790.56
2023-05-05T02:16:18.788Z,98788.77
2023-05-05T02:18:48.105Z,98782.89
2023-05-05T02:21:18.222Z,98783.77
2023-05-05T02:23:48.281Z,98780.18
2023-05-05T02:26:19.541Z,98777.61
2023-05-05T02:29:04.399Z,98776.05
2023-05-05T02:31:38.310Z,98772.14
2023-05-05T02:34:08.206Z,98776.63
2023-05-05T02:36:39.355Z,98779.39
2023-05-05T02:39:25.473Z,98778.61
2023-05-05T02:41:55.476Z,98783.56
2023-05-05T02:44:45.979Z,98784.23
2023-05-05T02:47:14.797Z,98785.35
2023-05-05T02:49:43.184Z,98781.61
2023-05-05T02:52:11.366Z,98779.96
2023-05-05T02:54:39.405Z,98778.39
2023-05-05T02:57:19.991Z,98781.09
2023-05-05T03:00:10.174Z,98779.12
2023-05-05T03:02:44.902Z,98776.23
2023-05-05T03:05:21.360Z,98767.56
2023-05-05T03:08:03.458Z,98767.20
2023-05-05T03:10:40.315Z,98771.59
2023-05-05T03:13:10.278Z,98771.38
2023-05-05T03:15:47.371Z,98775.80
2023-05-05T03:18:18.363Z,98777.05
2023-05-05T03:20:50.298Z,98781.67
2023-05-05T03:23:21.109Z,98784.29
2023-05-05T03:25:50.393Z,98783.29
2023-05-05T03:28:38.545Z,98785.55
2023-05-05T03:31:15.860Z,98786.36
2023-05-05T03:33:43.926Z,98785.80
2023-05-05T03:36:11.987Z,98781.95
2023-05-05T03:38:40.251Z,98778.55
2023-05-05T03:41:08.631Z,98776.56
2023-05-05T03:43:36.653Z,98773.02
2023-05-05T03:46:05.535Z,98768.03
2023-05-05T03:48:34.273Z,98769.77
2023-05-05T03:51:02.112Z,98770.37
2023-05-05T03:53:30.790Z,98772.52
2023-05-05T03:55:58.688Z,98774.41
2023-05-05T03:58:26.926Z,98778.87
2023-05-05T04:00:54.882Z,98780.54
2023-05-05T04:03:23.325Z,98777.88
2023-05-05T04:05:51.670Z,98779.33
2023-05-05T04:08:20.079Z,98782.41
2023-05-05T04:10:47.979Z,98785.80
2023-05-05T04:13:16.568Z,98785.58
2023-05-05T04:15:47.849Z,98792.50
2023-05-05T04:18:16.062Z,98798.20
2023-05-05T04:20:44.053Z,98797.09
2023-05-05T04:23:12.744Z,98793.16
2023-05-05T04:25:40.766Z,98795.78
2023-05-05T04:28:08.790Z,98796.60
2023-05-05T04:30:37.530Z,98798.96
2023-05-05T04:33:05.576Z,98799.33
2023-05-05T04:35:33.536Z,98798.95
2023-05-05T04:38:02.014Z,98804.98
2023-05-05T04:40:30.380Z,98801.77
2023-05-05T04:42:58.379Z,98803.23
2023-05-05T04:45:26.442Z,98805.42
2023-05-05T04:47:54.430Z,98808.42
2023-05-05T04:50:22.339Z,98809.39
2023-05-05T04:52:52.699Z,98808.39
2023-05-05T04:55:20.947Z,98812.78
2023-05-05T04:57:48.841Z,98819.90
2023-05-05T05:00:17.236Z,98827.67
2023-05-05T05:02:45.169Z,98827.01
2023-05-05T05:05:13.163Z,98828.96
2023-05-05T05:07:41.163Z,98829.87
2023-05-05T05:10:09.903Z,98828.35
2023-05-05T05:12:38.104Z,98833.83
2023-05-05T05:15:06.774Z,98833.02
2023-05-05T05:17:34.699Z,98833.27
2023-05-05T05:20:05.011Z,98830.55
2023-05-05T05:22:33.303Z,98835.54
2023-05-05T05:25:02.059Z,98838.45
2023-05-05T05:27:30.550Z,98845.86
2023-05-05T05:29:58.617Z,98848.52
2023-05-05T05:32:27.039Z,98848.67
2023-05-05T05:34:55.337Z,98855.84
2023-05-05T05:37:23.136Z,98855.43
2023-05-05T05:39:52.191Z,98856.04
2023-05-05T05:42:21.014Z,98856.20
2023-05-05T05:44:49.245Z,98854.63
2023-05-05T05:47:17.177Z,98856.17
2023-05-05T05:49:45.983Z,98863.77
2023-05-05T05:52:13.910Z,98863.30
2023-05-05T05:54:42.067Z,98866.27
2023-05-05T05:57:10.326Z,98865.59
2023-05-05T05:59:38.511Z,98863.63
2023-05-05T06:02:07.300Z,98865.77
2023-05-05T06:04:35.500Z,98865.08
2023-05-05T06:07:03.693Z,98861.39
2023-05-05T06:09:32.031Z,98862.36
2023-05-05T06:12:01.926Z,98858.92
2023-05-05T06:14:30.226Z,98857.94
2023-05-05T06:16:58.129Z,98858.08
2023-05-05T06:19:26.457Z,98857.14
2023-05-05T06:21:54.866Z,98855.81
2023-05-05T06:24:23.311Z,98853.39
2023-05-05T06:26:51.345Z,98855.45
2023-05-05T06:29:19.269Z,98859.73
2023-05-05T06:31:47.326Z,98854.19
2023-05-05T06:34:15.488Z,98859.35
2023-05-05T06:36:43.431Z,98861.75
2023-05-05T06:39:11.780Z,98866.08
2023-05-05T06:41:40.165Z,98859.28
2023-05-05T06:44:08.134Z,98858.74
2023-05-05T06:46:36.452Z,98860.81
2023-05-05T06:49:04.619Z,98856.45
2023-05-05T06:51:32.671Z,98858.43
2023-05-05T06:54:00.500Z,98857.05
2023-05-05T06:56:28.420Z,98858.59
2023-05-05T06:58:56.406Z,98859.46
2023-05-05T07:01:24.483Z,98858.41
2023-05-05T07:03:52.560Z,98855.41
2023-05-05T07:06:20.667Z,98849.90
2023-05-05T07:08:48.385Z,98847.12
2023-05-05T07:11:16.369Z,98852.48
2023-05-05T07:13:44.386Z,98855.66
2023-05-05T07:16:12.230Z,98851.52
2023-05-05T07:18:40.108Z,98853.93
2023-05-05T07:21:44.371Z,98851.73
2023-05-05T07:24:12.328Z,98847.27
2023-05-05T07:26:40.439Z,98842.64
2023-05-05T07:29:08.341Z,98842.77
2023-05-05T07:31:36.357Z,98849.05
2023-05-05T07:34:04.261Z,98850.52
2023-05-05T07:36:33.011Z,98846.14
2023-05-05T07:39:01.054Z,98845.29
2023-05-05T07:41:29.095Z,98846.44
2023-05-05T07:43:57.229Z,98848.85
2023-05-05T07:46:25.171Z,98853.50
2023-05-05T07:48:53.130Z,98848.90
2023-05-05T07:51:21.631Z,98847.62
2023-05-05T07:53:49.748Z,98848.09
2023-05-05T07:56:18.415Z,98843.55
2023-05-05T07:58:47.306Z,98845.55
2023-05-05T08:01:15.193Z,98847.80
2023-05-05T08:03:43.363Z,98844.14
2023-05-05T08:06:11.899Z,98842.85
2023-05-05T08:08:39.847Z,98847.15
2023-05-05T08:11:08.158Z,98844.27
2023-05-05T08:13:36.195Z,98842.33
2023-05-05T08:16:04.371Z,98841.98
2023-05-05T08:18:33.107Z,98842.71
2023-05-05T08:21:00.941Z,98839.98
2023-05-05T08:23:28.973Z,98844.91
2023-05-05T08:25:57.082Z,98846.16
2023-05-05T08:28:25.016Z,98846.62
2023-05-05T08:30:53.079Z,98841.66
2023-05-05T08:33:21.129Z,98844.16
2023-05-05T08:35:49.549Z,98840.54
2023-05-05T08:38:19.138Z,98836.48
2023-05-05T08:40:47.222Z,98839.79
2023-05-05T08:43:15.986Z,98838.21
2023-05-05T08:45:45.149Z,98838.13
2023-05-05T08:48:13.347Z,98830.20
2023-05-05T08:50:48.323Z,98830.35
2023-05-05T08:53:18.208Z,98830.92
2023-05-05T08:55:51.638Z,98820.31
2023-05-05T08:58:20.296Z,98827.57
2023-05-05T09:00:48.637Z,98821.02
2023-05-05T09:03:17.313Z,98825.34
2023-05-05T09:05:45.848Z,98823.05
2023-05-05T09:08:14.291Z,98820.69
2023-05-05T09:10:42.903Z,98821.08
2023-05-05T09:13:11.199Z,98816.66
2023-05-05T09:15:40.180Z,98820.17
2023-05-05T09:18:14.561Z,98817.20
2023-05-05T09:20:42.613Z,98828.30
2023-05-05T09:23:11.578Z,98829.82
2023-05-05T09:25:41.341Z,98827.33
2023-05-05T09:28:17.852Z,98825.98
2023-05-05T09:30:47.485Z,98817.98
2023-05-05T09:33:30.836Z,98823.83
2023-05-05T09:35:58.756Z,98826.05
2023-05-05T09:38:26.800Z,98826.21
2023-05-05T09:40:54.868Z,98824.13
2023-05-05T09:43:24.054Z,98822.25
2023-05-05T09:46:08.498Z,98819.73
2023-05-05T09:48:37.428Z,98825.67
2023-05-05T09:51:06.065Z,98829.33
2023-05-05T09:53:43.115Z,98824.18
2023-05-05T09:56:11.177Z,98825.02
2023-05-05T09:58:39.145Z,98820.54
2023-05-05T10:01:22.868Z,98819.53
2023-05-05T10:03:52.473Z,98815.27
2023-05-05T10:06:20.567Z,98812.63
2023-05-05T10:09:01.715Z,98809.09
2023-05-05T10:11:30.379Z,98812.45
2023-05-05T10:13:58.505Z,98810.73
2023-05-05T10:16:30.127Z,98807.65
2023-05-05T10:19:01.684Z,98806.98
2023-05-05T10:21:34.406Z,98807.80
2023-05-05T10:24:18.501Z,98807.25
2023-05-05T10:26:47.291Z,98800.98
2023-05-05T10:29:39.031Z,98799.17
2023-05-05T10:32:53.938Z,98797.58
2023-05-05T10:35:22.167Z,98800.60
2023-05-05T10:37:50.830Z,98796.37
2023-05-05T10:40:34.040Z,98792.52
2023-05-05T10:43:02.635Z,98794.20
2023-05-05T10:45:31.098Z,98789.56
2023-05-05T10:48:03.032Z,98792.48
2023-05-05T10:50:47.796Z,98792.41
2023-05-05T10:53:42.866Z,98795.00
2023-05-05T10:56:31.529Z,98788.86
2023-05-05T10:59:00.644Z,98786.89
2023-05-05T11:01:34.166Z,98786.02
2023-05-05T11:04:22.098Z,98779.39
2023-05-05T11:07:27.491Z,98776.81
2023-05-05T11:10:03.077Z,98771.14
2023-05-05T11:12:33.329Z,98773.62
2023-05-05T11:15:26.273Z,98768.59
2023-05-05T11:17:58.125Z,98772.23
2023-05-05T11:20:35.109Z,98772.13
2023-05-05T11:23:03.188Z,98771.65
2023-05-05T11:25:37.925Z,98771.83
2023-05-05T11:28:13.852Z,98768.52
2023-05-05T11:31:05.012Z,98764.27
2023-05-05T11:33:39.998Z,98762.95
2023-05-05T11:36:13.101Z,98760.30
2023-05-05T11:38:56.490Z,98754.09
2023-05-05T11:41:33.634Z,98754.00
2023-05-05T11:44:19.608Z,98756.60
2023-05-05T11:46:54.361Z,98754.92
2023-05-05T11:49:31.647Z,98752.83
2023-05-05T11:52:00.681Z,98747.85
2023-05-05T11:54:29.737Z,98747.69
2023-05-05T11:57:00.610Z,98744.36
2023-05-05T11:59:28.775Z,98749.20
2023-05-05T12:01:56.879Z,98743.54
2023-05-05T12:04:24.946Z,98741.52
2023-05-05T12:06:53.020Z,98742.34
2023-05-05T12:09:22.769Z,98742.51
2023-05-05T12:11:52.953Z,98742.86
2023-05-05T12:14:21.478Z,98734.71
2023-05-05T12:16:56.599Z,98730.31
2023-05-05T12:19:29.877Z,98737.92
2023-05-05T12:21:57.813Z,98739.77
2023-05-05T12:24:25.825Z,98741.44
2023-05-05T12:26:53.906Z,98732.52
2023-05-05T12:29:26.152Z,98727.05
2023-05-05T12:31:54.808Z,98727.11
2023-05-05T12:34:23.950Z,98729.85
2023-05-05T12:36:52.597Z,98729.95
2023-05-05T12:39:37.820Z,98729.55
2023-05-05T12:42:06.499Z,98734.40
2023-05-05T12:44:36.356Z,98735.76
2023-05-05T12:47:05.014Z,98733.20
2023-05-05T12:49:48.482Z,98724.51
2023-05-05T12:52:17.378Z,98718.88
2023-05-05T12:54:59.228Z,98713.30
2023-05-05T12:57:27.285Z,98713.70
2023-05-05T13:00:15.575Z,98714.98
2023-05-05T13:02:43.822Z,98709.41
2023-05-05T13:05:12.119Z,98709.63
2023-05-05T13:07:52.442Z,98706.77
2023-05-05T13:10:20.689Z,98705.27
2023-05-05T13:12:48.655Z,98701.38
2023-05-05T13:15:16.635Z,98700.20
2023-05-05T13:17:44.506Z,98696.15
2023-05-05T13:20:12.510Z,98692.42
2023-05-05T13:22:40.584Z,98686.09
2023-05-05T13:25:08.961Z,98685.75
2023-05-05T13:27:37.969Z,98689.03
2023-05-05T13:30:06.665Z,98690.14
2023-05-05T13:32:34.577Z,98687.70
2023-05-05T13:35:03.732Z,98682.83
2023-05-05T13:37:31.619Z,98676.71
2023-05-05T13:40:00.470Z,98673.92
2023-05-05T13:42:28.491Z,98671.60
2023-05-05T13:44:56.531Z,98662.23
2023-05-05T13:47:24.552Z,98664.23
2023-05-05T13:49:52.699Z,98663.55
2023-05-05T13:52:20.681Z,98659.89
2023-05-05T13:54:49.290Z,98657.48
2023-05-05T13:57:17.496Z,98660.11
2023-05-05T13:59:45.748Z,98652.33
2023-05-05T14:02:13.690Z,98648.28
2023-05-05T14:04:41.625Z,98643.84
2023-05-05T14:07:09.529Z,98646.94
2023-05-05T14:09:37.436Z,98648.45
2023-05-05T14:12:06.257Z,98647.85
2023-05-05T14:14:34.637Z,98648.04
2023-05-05T14:17:02.674Z,98643.57
2023-05-05T14:19:31.003Z,98648.39
2023-05-05T14:21:59.018Z,98648.90
2023-05-05T14:24:27.390Z,98653.10
2023-05-05T14:26:55.274Z,98654.75
2023-05-05T14:29:23.436Z,98655.03
2023-05-05T14:31:51.590Z,98651.56
2023-05-05T14:34:19.625Z,98645.36
2023-05-05T14:36:48.065Z,98647.08
2023-05-05T14:39:16.085Z,98654.66
2023-05-05T14:41:44.482Z,98654.50
2023-05-05T14:44:12.551Z,98653.58
2023-05-05T14:46:40.856Z,98653.82
2023-05-05T14:49:08.823Z,98654.77
2023-05-05T14:51:36.678Z,98654.08
2023-05-05T14:54:07.437Z,98655.02
2023-05-05T14:56:39.768Z,98654.41
2023-05-05T14:59:08.086Z,98649.19
2023-05-05T15:01:36.540Z,98648.60
2023-05-05T15:04:04.933Z,98649.45
2023-05-05T15:06:32.997Z,98650.77
2023-05-05T15:09:01.052Z,98652.64
2023-05-05T15:11:29.520Z,98654.44
2023-05-05T15:13:57.400Z,98651.59
2023-05-05T15:16:25.418Z,98646.64
2023-05-05T15:18:53.392Z,98645.68
2023-05-05T15:21:21.461Z,98644.48
2023-05-05T15:23:49.346Z,98643.25
2023-05-05T15:26:17.365Z,98644.41
2023-05-05T15:28:45.267Z,98647.30
2023-05-05T15:31:13.206Z,98646.30
2023-05-05T15:33:41.304Z,98642.30
2023-05-05T15:36:09.920Z,98633.92
2023-05-05T15:38:44.928Z,98629.59
2023-05-05T15:41:12.706Z,98628.71
2023-05-05T15:43:40.739Z,98631.13
2023-05-05T15:46:08.583Z,98626.83
2023-05-05T15:48:36.706Z,98626.48
2023-05-05T15:51:04.759Z,98628.17
2023-05-05T15:54:14.348Z,98624.64
2023-05-05T15:56:42.334Z,98625.25
2023-05-05T15:59:10.377Z,98620.35
2023-05-05T16:01:38.591Z,98620.29
2023-05-05T16:04:06.837Z,98619.08
2023-05-05T16:06:34.769Z,98621.89
2023-05-05T16:09:02.737Z,98620.61
2023-05-05T16:11:31.440Z,98621.36
2023-05-05T16:14:59.817Z,98619.02
2023-05-05T16:17:47.665Z,98619.34
2023-05-05T16:20:15.932Z,98616.83
2023-05-05T16:23:03.818Z,98614.73
2023-05-05T16:25:31.742Z,98620.25
2023-05-05T16:28:01.666Z,98621.31
2023-05-05T16:30:29.853Z,98620.27
2023-05-05T16:33:58.518Z,98620.96
2023-05-05T16:37:26.955Z,98622.02
2023-05-05T16:39:55.083Z,98626.23
2023-05-05T16:42:23.357Z,98625.92
2023-05-05T16:44:51.214Z,98621.85
2023-05-05T16:47:19.470Z,98620.59
2023-05-05T16:49:47.612Z,98616.05
2023-05-05T16:52:15.546Z,98623.16
2023-05-05T16:54:43.788Z,98625.80
2023-05-05T16:57:12.120Z,98624.27
2023-05-05T16:59:41.903Z,98621.59
2023-05-05T17:02:10.012Z,98624.67
2023-05-05T17:05:38.496Z,98620.06
2023-05-05T17:08:07.864Z,98624.41
2023-05-05T17:10:35.923Z,98623.91
2023-05-05T17:14:04.662Z,98626.86
2023-05-05T17:17:13.754Z,98628.48
2023-05-05T17:19:42.888Z,98631.98
2023-05-05T17:22:10.957Z,98634.67
2023-05-05T17:24:39.253Z,98639.05
2023-05-05T17:27:07.461Z,98639.33
2023-05-05T17:29:40.943Z,98641.52
2023-05-05T17:32:09.363Z,98643.50
2023-05-05T17:34:37.714Z,98649.20
2023-05-05T17:37:06.033Z,98648.98
2023-05-05T17:39:34.024Z,98647.77
2023-05-05T17:42:02.067Z,98646.13
2023-05-05T17:45:10.291Z,98646.39
2023-05-05T17:47:55.999Z,98644.39
2023-05-05T17:50:24.559Z,98644.99
2023-05-05T17:52:52.520Z,98646.58
2023-05-05T17:55:20.801Z,98641.05
2023-05-05T17:57:48.854Z,98646.89
2023-05-05T18:00:18.897Z,98644.60
2023-05-05T18:02:51.179Z,98650.36
2023-05-05T18:06:19.883Z,98647.55
2023-05-05T18:08:48.652Z,98650.12
2023-05-05T18:11:16.757Z,98650.33
2023-05-05T18:13:44.871Z,98649.38
2023-05-05T18:16:12.898Z,98645.65
2023-05-05T18:18:41.525Z,98650.13
2023-05-05T18:21:12.798Z,98650.48
2023-05-05T18:23:40.798Z,98650.08
2023-05-05T18:26:09.126Z,98653.76
2023-05-05T18:28:37.610Z,98653.69
2023-05-05T18:31:06.322Z,98654.74
2023-05-05T18:33:34.501Z,98651.31
2023-05-05T18:36:43.254Z,98648.28
2023-05-05T18:39:11.594Z,98647.73
2023-05-05T18:41:40.000Z,98650.23
2023-05-05T18:44:08.206Z,98658.38
2023-05-05T18:46:36.296Z,98660.38
2023-05-05T18:49:18.560Z,98659.95
2023-05-05T18:51:47.071Z,98661.98
2023-05-05T18:54:15.322Z,98658.54
2023-05-05T18:56:43.857Z,98657.09
2023-05-05T18:59:12.238Z,98663.20
2023-05-05T19:01:41.060Z,98664.42
2023-05-05T19:04:22.538Z,98668.65
2023-05-05T19:06:55.191Z,98669.68
2023-05-05T19:09:23.407Z,98667.64
2023-05-05T19:11:51.658Z,98668.99
2023-05-05T19:14:45.184Z,98664.32
2023-05-05T19:17:13.396Z,98666.98
2023-05-05T19:19:41.620Z,98662.67
2023-05-05T19:22:09.859Z,98664.77
2023-05-05T19:24:37.964Z,98665.02
2023-05-05T19:27:08.774Z,98666.88
2023-05-05T19:29:38.264Z,98663.89
2023-05-05T19:32:16.718Z,98654.77
2023-05-05T19:34:45.242Z,98657.98
2023-05-05T19:37:15.567Z,98659.84
2023-05-05T19:39:45.827Z,98657.00
2023-05-05T19:42:14.209Z,98662.04
2023-05-05T19:44:42.592Z,98661.92
2023-05-05T19:47:11.290Z,98665.15
2023-05-05T19:49:39.550Z,98662.77
2023-05-05T19:52:08.043Z,98661.63
2023-05-05T19:54:36.289Z,98656.63
2023-05-05T19:57:05.303Z,98655.25
2023-05-05T19:59:34.105Z,98655.14
2023-05-05T20:02:02.261Z,98657.79
2023-05-05T20:04:30.472Z,98662.21
2023-05-05T20:06:59.732Z,98660.48
2023-05-05T20:09:28.255Z,98656.58
2023-05-05T20:11:59.178Z,98653.64
2023-05-05T20:14:27.456Z,98651.95
2023-05-05T20:16:55.925Z,98647.55
2023-05-05T20:19:24.286Z,98636.42
2023-05-05T20:21:52.576Z,98647.33
2023-05-05T20:24:20.745Z,98643.26
2023-05-05T20:26:49.477Z,98630.89
2023-05-05T20:29:46.807Z,98645.52
2023-05-05T20:32:15.822Z,98644.10
2023-05-05T20:34:43.962Z,98641.38
2023-05-05T20:37:13.793Z,98641.73
2023-05-05T20:39:43.898Z,98640.27
2023-05-05T20:42:12.089Z,98642.89
2023-05-05T20:44:40.228Z,98642.11
2023-05-05T20:47:08.732Z,98642.89
2023-05-05T20:49:37.542Z,98642.65
2023-05-05T20:52:05.971Z,98645.86
2023-05-05T20:54:34.387Z,98644.28
2023-05-05T20:57:03.279Z,98637.39
2023-05-05T20:59:32.331Z,98639.36
2023-05-05T21:02:01.167Z,98642.62
2023-05-05T21:04:29.546Z,98636.77
2023-05-05T21:06:57.827Z,98642.03
2023-05-05T21:09:26.123Z,98641.23
2023-05-05T21:11:54.440Z,98638.58
2023-05-05T21:14:23.425Z,98632.07
2023-05-05T21:16:51.503Z,98634.95
2023-05-05T21:19:19.713Z,98640.40
2023-05-05T21:21:48.235Z,98640.17
2023-05-05T21:24:16.511Z,98638.08
2023-05-05T21:27:45.601Z,98637.49
2023-05-05T21:31:33.984Z,98637.78
2023-05-05T21:35:22.554Z,98632.27
2023-05-05T21:37:59.419Z,98627.42
2023-05-05T21:40:33.242Z,98623.80
2023-05-05T21:43:01.228Z,98621.23
2023-05-05T21:45:29.176Z,98618.56
2023-05-05T21:47:57.174Z,98620.37
2023-05-05T21:50:26.158Z,98618.02
2023-05-05T21:52:55.126Z,98615.35
2023-05-05T21:55:23.084Z,98611.50
2023-05-05T21:57:51.212Z,98609.90
2023-05-05T22:00:19.404Z,98610.65
2023-05-05T22:02:47.422Z,98608.96
2023-05-05T22:05:15.495Z,98603.25
2023-05-05T22:07:51.489Z,98600.13
2023-05-05T22:11:20.312Z,98603.80
2023-05-05T22:13:52.549Z,98602.09
2023-05-05T22:16:20.739Z,98606.25
2023-05-05T22:18:49.757Z,98607.09
2023-05-05T22:22:18.238Z,98608.51
2023-05-05T22:24:46.236Z,98604.69
2023-05-05T22:27:14.294Z,98606.25
2023-05-05T22:29:42.666Z,98602.97
2023-05-05T22:32:10.718Z,98603.30
2023-05-05T22:34:38.642Z,98600.30
2023-05-05T22:37:06.630Z,98598.40
2023-05-05T22:39:35.016Z,98597.66
2023-05-05T22:42:03.834Z,98597.45
2023-05-05T22:44:31.836Z,98596.23
2023-05-05T22:46:59.866Z,98597.16
2023-05-05T22:49:28.846Z,98594.27
2023-05-05T22:51:57.300Z,98587.66
2023-05-05T22:54:25.412Z,98582.50
2023-05-05T22:56:53.559Z,98586.21
2023-05-05T22:59:21.833Z,98584.68
2023-05-05T23:02:50.293Z,98582.81
2023-05-05T23:05:23.835Z,98577.44
2023-05-05T23:07:51.917Z,98579.23
2023-05-05T23:11:20.588Z,98580.14
2023-05-05T23:13:48.697Z,98576.40
2023-05-05T23:16:16.707Z,98572.85
2023-05-05T23:18:44.785Z,98576.98
2023-05-05T23:21:12.856Z,98579.25
2023-05-05T23:24:00.935Z,98573.44
2023-05-05T23:26:29.068Z,98577.13
2023-05-05T23:28:57.145Z,98575.75
2023-05-05T23:31:25.238Z,98578.56
2023-05-05T23:34:53.861Z,98582.70
2023-05-05T23:38:02.407Z,98581.23
2023-05-05T23:40:30.332Z,98584.46
2023-05-05T23:42:59.477Z,98585.51
2023-05-05T23:45:27.779Z,98581.13
2023-05-05T23:47:55.733Z,98573.24
2023-05-05T23:50:25.848Z,98569.77
2023-05-05T23:53:35.049Z,98565.14
2023-05-05T23:56:03.469Z,98564.07
2023-05-05T23:58:31.521Z,98564.82
